Time;durP1;ratioP1;P1;durP2;ratioP2;P2;SDS_P1;SDS_P2;PMS_P1;PMS_P2;Temp;Humidity;BMP_temperature;BMP_pressure;BME280_temperature;BME280_humidity;BME280_pressure;Samples;Min_cycle;Max_cycle;Signal;HPM_P1;HPM_P2
2022/01/24 00:01:16;;;;;;;;;;;;;;;4.42;93.73;102346.31;4960966;28;1322;-88
2022/01/24 00:03:41;;;;;;;;;;;;;;;4.46;93.61;102342.16;4961190;28;1218;-88
2022/01/24 00:06:10;;;;;;;;;;;;;;;4.51;94.11;102339.69;4971348;28;1894;-88
2022/01/24 00:08:35;;;;;;;;;;;;;;;4.50;93.64;102336.19;4980153;28;1366;-88
2022/01/24 00:11:06;;;;;;;;;;;;;;;4.44;93.92;102338.81;4980278;28;1363;-88
2022/01/24 00:16:33;;;;;;;;;;;;;;;4.29;94.06;102344.31;4993080;28;1376;-88
2022/01/24 00:27:06;;;;;;;;;;;;;;;4.36;94.20;102347.06;4964245;28;1948;-87
2022/01/24 00:29:31;;;;;;;;;;;;;;;4.38;93.99;102347.72;4979618;28;1224;-87
2022/01/24 00:31:56;;;;;;;;;;;;;;;4.40;93.82;102338.38;4996894;28;843;-89
2022/01/24 00:34:23;;;;;;;;;;;;;;;4.40;93.76;102342.97;4979768;28;1080;-87
2022/01/24 00:36:49;;;;;;;;;;;;;;;4.36;93.98;102339.78;4979751;28;1205;-88
2022/01/24 00:39:15;;;;;;;;;;;;;;;4.33;94.34;102347.50;4979594;28;1239;-87
2022/01/24 00:41:58;;;;;;;;;;;;;;;4.29;94.29;102341.59;4996763;28;1201;-87
2022/01/24 00:46:59;;;;;;;;;;;;;;;4.28;93.98;102336.38;4997223;28;1964;-87
2022/01/24 00:54:52;;;;;;;;;;;;;;;4.43;94.40;102337.13;4997290;28;625;-89
2022/01/24 00:57:19;;;;;;;;;;;;;;;4.41;94.07;102339.22;4995733;28;1359;-89
2022/01/24 00:59:44;;;;;;;;;;;;;;;4.35;94.28;102338.09;4979292;28;1273;-87
2022/01/24 01:02:09;;;;;;;;;;;;;;;4.38;94.30;102345.03;4995123;28;1123;-88
2022/01/24 01:04:50;;;;;;;;;;;;;;;4.38;94.54;102332.31;4993959;28;1530;-88
2022/01/24 01:07:24;;;;;;;;;;;;;;;4.37;94.40;102346.88;4964492;28;1890;-89
2022/01/24 01:18:08;;;;;;;;;;;;;;;4.44;94.56;102344.22;4996423;28;1312;-87
2022/01/24 01:20:48;;;;;;;;;;;;;;;4.48;93.83;102345.53;4974155;28;1497;-87
2022/01/24 01:23:13;;;;;;;;;;;;;;;4.45;93.98;102335.91;4958530;28;1538;-88
2022/01/24 01:25:41;;;;;;;;;;;;;;;4.47;94.35;102333.84;4966922;28;1521;-88
2022/01/24 01:28:06;;;;;;;;;;;;;;;4.48;93.92;102330.09;4976555;28;1958;-88
2022/01/24 01:30:39;;;;;;;;;;;;;;;4.49;94.51;102320.09;4969909;28;1450;-87
2022/01/24 01:33:20;;;;;;;;;;;;;;;4.51;93.77;102323.44;4978747;28;1445;-87
2022/01/24 01:57:11;;;;;;;;;;;;;;;4.39;94.04;102320.44;4976973;28;1044;-87
2022/01/24 01:59:36;;;;;;;;;;;;;;;4.34;94.11;102322.88;4975751;28;1580;-87
2022/01/24 02:02:01;;;;;;;;;;;;;;;4.37;94.63;102327.91;4977862;28;1014;-87
2022/01/24 02:04:26;;;;;;;;;;;;;;;4.40;94.36;102316.69;4978004;28;1209;-87
2022/01/24 02:06:51;;;;;;;;;;;;;;;4.43;94.50;102324.41;4995403;28;1894;-87
2022/01/24 02:09:17;;;;;;;;;;;;;;;4.44;94.26;102325.25;4977925;28;1557;-86
2022/01/24 02:11:42;;;;;;;;;;;;;;;4.44;94.16;102319.84;4995314;28;883;-87
2022/01/24 02:14:12;;;;;;;;;;;;;;;4.40;94.64;102326.69;4977845;28;1242;-86
2022/01/24 02:16:47;;;;;;;;;;;;;;;4.39;94.71;102322.31;4994224;28;1335;-88
2022/01/24 02:24:21;;;;;;;;;;;;;;;4.41;94.22;102326.50;4995613;28;688;-87
2022/01/24 02:26:49;;;;;;;;;;;;;;;4.34;94.03;102320.16;4978363;28;1883;-87
2022/01/24 02:29:30;;;;;;;;;;;;;;;4.35;94.65;102327.25;4975742;28;1196;-87
2022/01/24 02:31:56;;;;;;;;;;;;;;;4.41;94.33;102322.94;4958478;28;1268;-87
2022/01/24 02:34:27;;;;;;;;;;;;;;;4.40;94.02;102324.81;4965802;28;1341;-86
2022/01/24 02:36:53;;;;;;;;;;;;;;;4.35;94.42;102323.72;4977642;28;1526;-88
2022/01/24 02:39:45;;;;;;;;;;;;;;;4.28;94.69;102325.53;4977660;28;1395;-87
2022/01/24 02:51:03;;;;;;;;;;;;;;;4.31;94.44;102319.72;4995276;28;1261;-87
2022/01/24 02:53:10;;;;;;;;;;;;;;;4.28;94.34;102318.22;4994056;28;1184;-87
2022/01/24 02:55:36;;;;;;;;;;;;;;;4.28;94.29;102309.25;4977138;28;1217;-87
2022/01/24 02:58:02;;;;;;;;;;;;;;;4.25;94.58;102318.66;4977368;28;1280;-87
2022/01/24 03:00:27;;;;;;;;;;;;;;;4.33;94.74;102315.81;4977078;28;1360;-87
2022/01/24 03:02:52;;;;;;;;;;;;;;;4.33;94.58;102313.09;4993072;28;1393;-87
2022/01/24 03:05:17;;;;;;;;;;;;;;;4.32;94.58;102305.16;4977211;28;1268;-87
2022/01/24 03:07:42;;;;;;;;;;;;;;;4.33;94.71;102304.94;4976934;28;1898;-86
2022/01/24 03:10:13;;;;;;;;;;;;;;;4.36;94.33;102301.84;4977198;28;1221;-87
2022/01/24 03:12:44;;;;;;;;;;;;;;;4.38;94.47;102313.31;4976108;28;1906;-87
2022/01/24 03:15:10;;;;;;;;;;;;;;;4.36;94.44;102303.69;4975418;28;1328;-86
2022/01/24 03:17:36;;;;;;;;;;;;;;;4.34;94.71;102305.78;4957426;28;1206;-88
2022/01/24 03:20:01;;;;;;;;;;;;;;;4.28;94.58;102293.00;4979670;28;1489;-87
2022/01/24 03:22:26;;;;;;;;;;;;;;;4.26;94.44;102300.47;4983013;28;1471;-86
2022/01/24 03:24:51;;;;;;;;;;;;;;;4.31;94.46;102301.59;4975193;28;1006;-87
2022/01/24 03:27:16;;;;;;;;;;;;;;;4.36;94.44;102303.69;4957554;28;1969;-87
2022/01/24 03:29:41;;;;;;;;;;;;;;;4.31;94.33;102300.75;4972796;28;1648;-87
2022/01/24 03:32:07;;;;;;;;;;;;;;;4.29;94.38;102302.81;4992957;28;1113;-88
2022/01/24 03:34:32;;;;;;;;;;;;;;;4.35;94.37;102299.31;4984255;28;1299;-87
2022/01/24 03:36:57;;;;;;;;;;;;;;;4.39;94.75;102306.03;5003629;28;1104;-89
2022/01/24 03:39:22;;;;;;;;;;;;;;;4.39;93.95;102301.44;5005144;28;1173;-87
2022/01/24 03:41:47;;;;;;;;;;;;;;;4.37;94.61;102305.38;4994166;28;1185;-88
2022/01/24 03:44:14;;;;;;;;;;;;;;;4.38;94.60;102302.47;4992743;28;981;-87
2022/01/24 03:47:02;;;;;;;;;;;;;;;4.32;94.35;102303.28;4992739;28;1898;-87
2022/01/24 03:49:46;;;;;;;;;;;;;;;4.28;94.62;102301.97;4977121;28;1328;-87
2022/01/24 03:52:12;;;;;;;;;;;;;;;4.33;94.59;102299.53;4976351;28;1419;-86
2022/01/24 03:54:37;;;;;;;;;;;;;;;4.27;94.36;102302.16;4976839;28;1300;-87
2022/01/24 03:57:03;;;;;;;;;;;;;;;4.26;94.90;102305.91;4994057;28;918;-88
2022/01/24 03:59:31;;;;;;;;;;;;;;;4.32;94.21;102307.84;4976512;28;1308;-88
2022/01/24 04:01:57;;;;;;;;;;;;;;;4.34;94.42;102303.09;4976634;28;1306;-88
2022/01/24 04:04:23;;;;;;;;;;;;;;;4.26;94.25;102303.19;4976881;28;1285;-87
2022/01/24 04:06:48;;;;;;;;;;;;;;;4.26;94.50;102305.91;4976449;28;1890;-87
2022/01/24 04:09:14;;;;;;;;;;;;;;;4.28;94.25;102299.25;4970081;28;1571;-87
2022/01/24 04:11:40;;;;;;;;;;;;;;;4.35;94.71;102293.88;4956925;28;1431;-88
2022/01/24 04:14:25;;;;;;;;;;;;;;;4.39;94.42;102289.78;4993252;28;1374;-87
2022/01/24 04:17:06;;;;;;;;;;;;;;;4.34;94.14;102294.94;4994007;28;898;-86
2022/01/24 04:21:19;;;;;;;;;;;;;;;4.26;94.55;102290.47;4992663;28;1273;-87
2022/01/24 04:22:19;;;;;;;;;;;;;;;4.24;94.61;102291.72;4993548;28;1168;-86
2022/01/24 04:24:45;;;;;;;;;;;;;;;4.30;94.81;102296.34;4976299;28;1228;-87
2022/01/24 04:27:11;;;;;;;;;;;;;;;4.28;94.53;102301.13;4976102;28;1902;-88
2022/01/24 04:29:36;;;;;;;;;;;;;;;4.27;94.22;102292.16;5031799;23;1678;-83
2022/01/24 04:32:02;;;;;;;;;;;;;;;4.29;94.56;102290.09;4991816;28;1655;-83
2022/01/24 04:34:27;;;;;;;;;;;;;;;4.29;94.13;102286.53;5020855;28;1424;-84
2022/01/24 04:36:53;;;;;;;;;;;;;;;4.26;94.62;102281.50;5001200;28;1460;-83
2022/01/24 04:39:18;;;;;;;;;;;;;;;4.26;94.39;102282.34;4994716;28;1475;-83
2022/01/24 04:41:47;;;;;;;;;;;;;;;4.29;94.14;102286.53;5001464;28;1579;-82
2022/01/24 04:44:32;;;;;;;;;;;;;;;4.30;94.76;102282.81;5021617;28;1655;-82
2022/01/24 04:54:42;;;;;;;;;;;;;;;4.25;94.25;102293.41;4998026;28;1002;-82
2022/01/24 04:57:09;;;;;;;;;;;;;;;4.27;94.62;102297.59;4979758;28;1339;-84
2022/01/24 04:59:34;;;;;;;;;;;;;;;4.27;94.35;102294.88;4993854;28;1335;-82
2022/01/24 05:02:00;;;;;;;;;;;;;;;4.29;94.39;102297.38;5017201;28;859;-82
2022/01/24 05:04:25;;;;;;;;;;;;;;;4.30;94.70;102294.50;4995530;28;1536;-83
2022/01/24 05:06:50;;;;;;;;;;;;;;;4.27;94.60;102296.75;5004300;28;1936;-82
2022/01/24 05:09:17;;;;;;;;;;;;;;;4.27;94.59;102304.88;4998960;28;1257;-83
2022/01/24 05:25:09;;;;;;;;;;;;;;;4.22;94.37;102302.75;5016426;28;634;-83
2022/01/24 05:27:35;;;;;;;;;;;;;;;4.25;94.13;102301.53;4998323;28;1874;-83
2022/01/24 05:30:00;;;;;;;;;;;;;;;4.26;94.43;102308.59;5015559;28;1268;-82
2022/01/24 05:32:25;;;;;;;;;;;;;;;4.21;94.80;102303.78;4998091;28;1355;-83
2022/01/24 05:34:50;;;;;;;;;;;;;;;4.19;94.36;102293.13;4998066;28;851;-82
2022/01/24 05:37:15;;;;;;;;;;;;;;;4.21;94.88;102295.66;4998109;28;1277;-82
2022/01/24 05:39:40;;;;;;;;;;;;;;;4.24;94.83;102294.44;4986550;28;1409;-83
2022/01/24 05:42:06;;;;;;;;;;;;;;;4.26;94.28;102281.50;4988903;28;1537;-83
2022/01/24 05:44:31;;;;;;;;;;;;;;;4.26;94.50;102282.34;4980234;28;1424;-84
2022/01/24 05:46:56;;;;;;;;;;;;;;;4.27;94.78;102283.19;4998735;28;1941;-83
2022/01/24 05:49:21;;;;;;;;;;;;;;;4.29;94.67;102283.84;4998652;28;1213;-83
2022/01/24 05:51:46;;;;;;;;;;;;;;;4.30;94.34;102278.22;5015040;28;1255;-83
2022/01/24 05:54:11;;;;;;;;;;;;;;;4.26;94.31;102276.91;5005112;28;1179;-82
2022/01/24 05:56:37;;;;;;;;;;;;;;;4.27;94.39;102277.75;4998394;28;1158;-82
2022/01/24 05:59:02;;;;;;;;;;;;;;;4.26;94.55;102274.22;4990812;28;1261;-82
2022/01/24 06:01:27;;;;;;;;;;;;;;;4.27;94.49;102283.19;4982705;28;1304;-83
2022/01/24 06:03:52;;;;;;;;;;;;;;;4.22;94.36;102280.25;4997989;28;1320;-83
2022/01/24 06:06:17;;;;;;;;;;;;;;;4.22;94.31;102278.38;5015930;28;1898;-83
2022/01/24 06:08:42;;;;;;;;;;;;;;;4.24;94.59;102278.19;4997795;28;1385;-82
2022/01/24 06:11:07;;;;;;;;;;;;;;;4.31;94.38;102279.91;5014960;28;1064;-82
2022/01/24 06:13:33;;;;;;;;;;;;;;;4.33;94.18;102285.13;5014345;28;1349;-81
2022/01/24 06:15:58;;;;;;;;;;;;;;;4.35;94.12;102288.47;4997251;28;993;-82
2022/01/24 06:18:25;;;;;;;;;;;;;;;4.37;94.52;102278.28;4997697;28;1214;-82
2022/01/24 06:20:51;;;;;;;;;;;;;;;4.52;94.08;102281.72;5015539;28;1201;-81
2022/01/24 06:23:16;;;;;;;;;;;;;;;4.50;94.21;102279.25;4997783;28;1213;-82
2022/01/24 06:25:42;;;;;;;;;;;;;;;4.44;94.46;102282.72;4997900;28;1218;-83
2022/01/24 06:28:07;;;;;;;;;;;;;;;4.37;94.28;102283.69;4999025;28;1951;-82
2022/01/24 06:30:33;;;;;;;;;;;;;;;4.32;94.25;102297.00;4999284;28;1272;-82
2022/01/24 06:32:58;;;;;;;;;;;;;;;4.35;94.33;102285.75;4997264;28;1209;-82
2022/01/24 06:35:23;;;;;;;;;;;;;;;4.36;94.42;102279.31;4997249;28;1296;-82
2022/01/24 06:37:48;;;;;;;;;;;;;;;4.38;94.13;102288.94;5015591;28;804;-82
2022/01/24 06:40:14;;;;;;;;;;;;;;;4.39;94.46;102281.63;4997459;28;1502;-83
2022/01/24 06:42:39;;;;;;;;;;;;;;;4.39;94.44;102290.59;4997795;28;1260;-82
2022/01/24 06:45:04;;;;;;;;;;;;;;;4.39;94.66;102289.78;4998089;28;1379;-83
2022/01/24 06:47:30;;;;;;;;;;;;;;;4.33;94.04;102291.41;4997665;28;1894;-81
2022/01/24 06:49:55;;;;;;;;;;;;;;;4.25;94.37;102293.41;5016290;28;1274;-83
2022/01/24 06:52:22;;;;;;;;;;;;;;;4.30;94.35;102296.34;5016011;28;1145;-83
2022/01/24 06:54:47;;;;;;;;;;;;;;;4.31;94.62;102296.16;4998134;28;1206;-82
2022/01/24 06:57:13;;;;;;;;;;;;;;;4.27;94.50;102296.75;4998468;28;1477;-83
2022/01/24 06:59:39;;;;;;;;;;;;;;;4.26;94.66;102297.78;4998677;28;1329;-82
2022/01/24 07:02:05;;;;;;;;;;;;;;;4.31;94.57;102301.59;4998856;28;1229;-83
2022/01/24 07:04:30;;;;;;;;;;;;;;;4.36;94.46;102295.56;4998949;28;1245;-83
2022/01/24 07:06:55;;;;;;;;;;;;;;;4.37;94.17;102298.09;5000752;28;1914;-81
2022/01/24 07:09:20;;;;;;;;;;;;;;;4.36;94.32;102292.84;4998549;28;1299;-82
2022/01/24 07:11:46;;;;;;;;;;;;;;;4.34;94.35;102297.66;4998610;28;1026;-83
2022/01/24 07:14:13;;;;;;;;;;;;;;;4.34;94.50;102305.78;5017058;28;843;-83
2022/01/24 07:18:00;;;;;;;;;;;;;;;4.34;94.41;102312.03;4999555;28;1336;-83
2022/01/24 07:19:33;;;;;;;;;;;;;;;4.34;94.71;102311.22;5004058;28;1292;-83
2022/01/24 07:21:59;;;;;;;;;;;;;;;4.28;94.62;102306.56;4999374;28;1224;-83
2022/01/24 07:24:25;;;;;;;;;;;;;;;4.25;94.66;102310.50;4999210;28;1323;-83
2022/01/24 07:26:50;;;;;;;;;;;;;;;4.29;94.61;102311.78;4999240;28;1898;-83
2022/01/24 07:29:15;;;;;;;;;;;;;;;4.28;94.67;102306.56;4998944;28;1292;-84
2022/01/24 07:31:41;;;;;;;;;;;;;;;4.27;94.51;102304.88;4998566;28;1284;-83
2022/01/24 07:34:06;;;;;;;;;;;;;;;4.31;94.33;102306.16;4999356;28;1189;-83
2022/01/24 07:36:31;;;;;;;;;;;;;;;4.32;94.57;102302.44;5016815;28;1119;-83
2022/01/24 07:38:56;;;;;;;;;;;;;;;4.34;94.59;102303.09;4999328;28;1231;-82
2022/01/24 07:41:28;;;;;;;;;;;;;;;4.36;94.32;102314.53;4998428;28;1214;-82
2022/01/24 07:43:54;;;;;;;;;;;;;;;4.31;94.45;102317.84;4998039;28;1347;-83
2022/01/24 07:46:20;;;;;;;;;;;;;;;4.28;94.30;102311.97;4998984;28;1961;-82
2022/01/24 07:48:45;;;;;;;;;;;;;;;4.29;94.58;102313.66;4998842;28;1212;-83
2022/01/24 07:51:10;;;;;;;;;;;;;;;4.27;94.18;102310.28;4998022;28;1303;-83
2022/01/24 07:53:35;;;;;;;;;;;;;;;4.19;94.34;102317.53;4999118;28;1370;-83
2022/01/24 07:56:01;;;;;;;;;;;;;;;4.20;94.47;102315.66;4999614;28;1165;-82
2022/01/24 07:58:26;;;;;;;;;;;;;;;4.22;94.79;102312.75;5001629;28;1348;-83
2022/01/24 08:00:51;;;;;;;;;;;;;;;4.29;94.56;102317.22;4999163;28;1384;-83
2022/01/24 08:03:16;;;;;;;;;;;;;;;4.33;94.42;102313.09;5018016;28;839;-83
2022/01/24 08:05:42;;;;;;;;;;;;;;;4.35;94.30;102310.16;5020310;28;1013;-83
2022/01/24 08:08:07;;;;;;;;;;;;;;;4.30;94.53;102313.47;5021715;28;1969;-82
2022/01/24 08:10:33;;;;;;;;;;;;;;;4.35;94.31;102307.44;5005686;28;1383;-83
2022/01/24 08:12:58;;;;;;;;;;;;;;;4.33;94.37;102312.25;5004499;28;1414;-83
2022/01/24 08:15:24;;;;;;;;;;;;;;;4.35;94.22;102311.00;5022186;28;803;-82
2022/01/24 08:17:49;;;;;;;;;;;;;;;4.39;94.01;102306.03;5004571;28;1312;-84
2022/01/24 08:20:15;;;;;;;;;;;;;;;4.38;94.39;102309.78;5022302;28;1293;-83
2022/01/24 08:22:40;;;;;;;;;;;;;;;4.40;94.05;102297.72;5004605;28;1253;-82
2022/01/24 08:25:06;;;;;;;;;;;;;;;4.40;94.52;102296.88;5022021;28;981;-83
2022/01/24 08:27:33;;;;;;;;;;;;;;;4.44;94.21;102295.44;5021514;28;2016;-82
2022/01/24 08:29:58;;;;;;;;;;;;;;;4.46;94.16;102298.78;5022129;28;1272;-83
2022/01/24 08:32:23;;;;;;;;;;;;;;;4.50;94.40;102300.94;5022925;28;1123;-83
2022/01/24 08:34:48;;;;;;;;;;;;;;;4.53;93.94;102300.50;5005284;28;1217;-84
2022/01/24 08:37:13;;;;;;;;;;;;;;;4.50;93.76;102305.50;5023105;28;1084;-84
2022/01/24 08:39:39;;;;;;;;;;;;;;;4.47;93.81;102298.59;5005390;28;1212;-83
2022/01/24 08:42:23;;;;;;;;;;;;;;;4.45;94.00;102303.38;5023110;28;859;-83
2022/01/24 08:47:19;;;;;;;;;;;;;;;4.53;94.46;102303.22;5023910;28;1887;-83
2022/01/24 08:49:45;;;;;;;;;;;;;;;4.57;94.32;102303.69;5006599;28;1229;-83
2022/01/24 08:52:10;;;;;;;;;;;;;;;4.59;93.87;102301.63;5022793;28;815;-82
2022/01/24 08:54:35;;;;;;;;;;;;;;;4.63;93.94;102305.59;5006475;28;1279;-83
2022/01/24 08:57:00;;;;;;;;;;;;;;;4.65;93.66;102311.69;5024118;28;1045;-83
2022/01/24 08:59:25;;;;;;;;;;;;;;;4.64;94.02;102306.44;5005947;28;1305;-83
2022/01/24 09:01:51;;;;;;;;;;;;;;;4.66;94.07;102297.09;5006768;28;1053;-83
2022/01/24 09:04:16;;;;;;;;;;;;;;;4.66;93.83;102302.50;5007752;28;1201;-84
2022/01/24 09:06:41;;;;;;;;;;;;;;;4.73;94.11;102291.69;5025191;28;1959;-83
2022/01/24 09:09:06;;;;;;;;;;;;;;;4.72;93.79;102290.00;5025544;28;1225;-83
2022/01/24 09:11:34;;;;;;;;;;;;;;;4.73;93.27;102287.09;5015243;28;1200;-82
2022/01/24 09:13:59;;;;;;;;;;;;;;;4.76;93.06;102289.44;5019748;28;1339;-82
2022/01/24 09:16:25;;;;;;;;;;;;;;;4.78;93.54;102292.75;5015784;28;1276;-82
2022/01/24 09:18:51;;;;;;;;;;;;;;;4.80;92.66;102285.28;5000497;28;1307;-82
2022/01/24 09:21:16;;;;;;;;;;;;;;;4.78;93.07;102292.75;4998162;28;1280;-82
2022/01/24 09:23:42;;;;;;;;;;;;;;;4.79;92.67;102285.47;5015998;28;993;-82
2022/01/24 09:26:07;;;;;;;;;;;;;;;4.82;92.58;102285.91;4998067;28;1886;-82
2022/01/24 09:28:32;;;;;;;;;;;;;;;4.82;92.48;102293.22;5015451;28;1913;-82
2022/01/24 09:30:57;;;;;;;;;;;;;;;4.86;92.13;102289.06;4997664;28;1406;-83
2022/01/24 09:33:24;;;;;;;;;;;;;;;4.83;92.23;102289.47;4997666;28;1002;-82
2022/01/24 09:35:51;;;;;;;;;;;;;;;4.82;92.37;102290.50;4998032;28;1256;-82
2022/01/24 09:38:16;;;;;;;;;;;;;;;4.82;92.18;102299.47;4998229;28;1347;-82
2022/01/24 09:40:42;;;;;;;;;;;;;;;4.86;92.06;102303.47;4998425;28;1321;-82
2022/01/24 09:43:07;;;;;;;;;;;;;;;4.87;92.10;102304.31;4997662;28;1339;-83
2022/01/24 09:45:32;;;;;;;;;;;;;;;4.87;91.47;102298.88;4997967;28;1289;-83
2022/01/24 09:47:58;;;;;;;;;;;;;;;4.86;91.28;102308.03;5015699;28;1906;-82
2022/01/24 09:50:23;;;;;;;;;;;;;;;4.85;91.63;102304.50;5016400;28;1226;-83
2022/01/24 09:52:49;;;;;;;;;;;;;;;4.88;91.39;102303.28;5016158;28;1057;-83
2022/01/24 09:55:15;;;;;;;;;;;;;;;4.89;90.72;102300.38;4998966;28;1248;-82
2022/01/24 09:57:47;;;;;;;;;;;;;;;4.89;90.57;102292.22;5016440;28;1202;-83
2022/01/24 10:00:13;;;;;;;;;;;;;;;4.91;90.20;102302.88;4999436;28;1421;-82
2022/01/24 10:02:39;;;;;;;;;;;;;;;4.93;89.86;102295.38;4998976;28;1349;-83
2022/01/24 10:05:11;;;;;;;;;;;;;;;4.93;90.20;102306.25;4998372;28;1352;-83
2022/01/24 10:07:38;;;;;;;;;;;;;;;4.92;89.62;102296.41;4998850;28;1961;-83
2022/01/24 10:10:03;;;;;;;;;;;;;;;4.95;89.39;102298.72;4998987;28;1190;-83
2022/01/24 10:17:46;;;;;;;;;;;;;;;4.93;88.92;102312.47;5016574;28;566;-83
2022/01/24 10:20:31;;;;;;;;;;;;;;;4.90;88.92;102307.47;4997167;28;1355;-83
2022/01/24 10:23:03;;;;;;;;;;;;;;;4.92;88.37;102310.00;4997687;28;1228;-82
2022/01/24 10:25:29;;;;;;;;;;;;;;;4.85;87.51;102309.91;4997679;28;1316;-83
2022/01/24 10:28:04;;;;;;;;;;;;;;;4.82;87.30;102309.50;4996992;28;1953;-83
2022/01/24 10:30:30;;;;;;;;;;;;;;;4.87;87.80;102310.56;5014622;28;1205;-83
2022/01/24 10:32:57;;;;;;;;;;;;;;;4.87;87.78;102310.56;4996913;28;1250;-83
2022/01/24 10:35:23;;;;;;;;;;;;;;;4.88;87.24;102309.53;5015010;28;820;-83
2022/01/24 10:37:52;;;;;;;;;;;;;;;4.90;87.46;102310.19;4997422;28;1276;-82
2022/01/24 10:40:45;;;;;;;;;;;;;;;4.92;87.41;102310.81;5014681;28;1198;-83
2022/01/24 10:43:21;;;;;;;;;;;;;;;4.97;87.54;102303.94;4996932;28;1369;-82
2022/01/24 10:45:47;;;;;;;;;;;;;;;4.96;87.26;102303.09;4997083;28;1280;-83
2022/01/24 10:48:13;;;;;;;;;;;;;;;4.95;86.85;102299.56;4997073;28;1963;-82
2022/01/24 10:50:38;;;;;;;;;;;;;;;4.97;86.88;102293.94;5015148;28;1189;-82
2022/01/24 10:53:12;;;;;;;;;;;;;;;4.97;87.42;102293.09;4996888;28;1275;-83
2022/01/24 10:55:38;;;;;;;;;;;;;;;5.02;87.22;102293.34;4997476;28;1324;-82
2022/01/24 10:58:03;;;;;;;;;;;;;;;5.03;86.63;102295.84;5015270;28;1014;-82
2022/01/24 11:00:29;;;;;;;;;;;;;;;5.03;86.67;102300.44;4997564;28;1217;-83
2022/01/24 11:02:56;;;;;;;;;;;;;;;5.01;87.31;102295.22;4997753;28;1328;-83
2022/01/24 11:05:25;;;;;;;;;;;;;;;5.01;86.91;102292.50;4997422;28;1237;-83
2022/01/24 11:07:58;;;;;;;;;;;;;;;5.03;87.05;102286.84;5015654;28;1961;-83
2022/01/24 11:10:25;;;;;;;;;;;;;;;5.04;86.46;102285.81;4997222;28;1356;-83
2022/01/24 11:12:52;;;;;;;;;;;;;;;5.04;87.14;102283.13;4997260;28;1402;-83
2022/01/24 11:15:17;;;;;;;;;;;;;;;5.02;86.73;102282.50;4997679;28;1335;-83
2022/01/24 11:17:43;;;;;;;;;;;;;;;5.03;85.85;102276.00;4997628;28;1499;-83
2022/01/24 11:20:11;;;;;;;;;;;;;;;5.02;86.04;102277.88;4997633;28;1241;-81
2022/01/24 11:22:42;;;;;;;;;;;;;;;4.99;85.65;102291.03;5015194;28;843;-83
2022/01/24 11:25:08;;;;;;;;;;;;;;;4.99;85.36;102286.44;5015217;28;941;-84
2022/01/24 11:27:33;;;;;;;;;;;;;;;4.99;85.57;102286.44;4996639;28;1965;-83
2022/01/24 11:30:02;;;;;;;;;;;;;;;5.01;85.80;102275.38;4996498;28;1547;-83
2022/01/24 11:32:34;;;;;;;;;;;;;;;5.03;85.86;102268.69;5014219;28;1212;-83
2022/01/24 11:34:59;;;;;;;;;;;;;;;5.07;86.15;102271.88;5014908;28;958;-83
2022/01/24 11:37:33;;;;;;;;;;;;;;;5.07;85.67;102271.88;4997225;28;1367;-83
2022/01/24 11:39:58;;;;;;;;;;;;;;;5.09;85.21;102261.66;5018279;28;1205;-83
2022/01/24 11:42:27;;;;;;;;;;;;;;;5.10;85.30;102263.34;5018572;28;1083;-84
2022/01/24 11:44:52;;;;;;;;;;;;;;;5.09;85.21;102272.50;5001139;28;1446;-82
2022/01/24 11:47:19;;;;;;;;;;;;;;;5.05;85.35;102274.78;4987860;28;1909;-82
2022/01/24 11:49:44;;;;;;;;;;;;;;;5.09;85.80;102275.22;4980960;28;1316;-83
2022/01/24 11:52:12;;;;;;;;;;;;;;;5.09;85.53;102275.22;4981507;28;1104;-83
2022/01/24 11:55:02;;;;;;;;;;;;;;;5.09;84.86;102272.50;4981806;28;1289;-83
2022/01/24 11:57:37;;;;;;;;;;;;;;;5.06;84.99;102271.03;4982497;28;1245;-83
2022/01/24 12:00:05;;;;;;;;;;;;;;;4.99;85.12;102267.44;4982076;28;1176;-84
2022/01/24 12:02:37;;;;;;;;;;;;;;;5.01;85.54;102264.53;4981498;28;1348;-83
2022/01/24 12:05:06;;;;;;;;;;;;;;;5.03;85.16;102262.44;4982702;28;1368;-82
2022/01/24 12:07:32;;;;;;;;;;;;;;;4.98;84.44;102263.06;5000189;28;1894;-82
2022/01/24 12:10:16;;;;;;;;;;;;;;;4.96;84.78;102259.69;4981989;28;1217;-83
2022/01/24 12:12:47;;;;;;;;;;;;;;;4.96;84.65;102256.97;4981688;28;1221;-83
2022/01/24 12:15:32;;;;;;;;;;;;;;;4.97;84.87;102252.38;4982386;28;1233;-84
2022/01/24 12:18:01;;;;;;;;;;;;;;;4.98;85.28;102251.34;4989245;28;1362;-83
2022/01/24 12:20:29;;;;;;;;;;;;;;;4.99;84.69;102255.75;5009953;28;1390;-83
2022/01/24 12:22:54;;;;;;;;;;;;;;;5.00;84.76;102252.00;4985648;28;1387;-83
2022/01/24 12:25:39;;;;;;;;;;;;;;;4.97;85.00;102253.22;5000912;28;1169;-83
2022/01/24 12:28:17;;;;;;;;;;;;;;;4.92;84.72;102251.13;5013099;28;1890;-83
2022/01/24 12:31:02;;;;;;;;;;;;;;;4.92;84.61;102248.41;4999978;28;1564;-83
2022/01/24 12:33:32;;;;;;;;;;;;;;;4.93;84.85;102251.97;4996079;28;1530;-84
2022/01/24 12:35:57;;;;;;;;;;;;;;;4.91;85.07;102248.63;4993195;28;1291;-84
2022/01/24 12:38:22;;;;;;;;;;;;;;;4.92;85.04;102251.13;5017223;28;1381;-84
2022/01/24 12:40:48;;;;;;;;;;;;;;;4.97;84.97;102241.53;4995164;28;1392;-83
2022/01/24 12:43:40;;;;;;;;;;;;;;;4.99;85.03;102243.03;5001676;28;1413;-83
2022/01/24 12:46:19;;;;;;;;;;;;;;;4.96;84.40;102240.69;5008342;28;1566;-83
2022/01/24 12:48:47;;;;;;;;;;;;;;;4.97;85.08;102241.53;5000499;28;1401;-84
2022/01/24 12:51:12;;;;;;;;;;;;;;;4.94;84.41;102248.19;5017704;28;1226;-83
2022/01/24 12:53:38;;;;;;;;;;;;;;;4.96;84.52;102246.13;4999297;28;1226;-84
2022/01/24 12:56:07;;;;;;;;;;;;;;;4.95;84.99;102244.44;5019850;28;1406;-84
2022/01/24 12:58:32;;;;;;;;;;;;;;;4.96;84.05;102246.13;5002057;28;1367;-83
2022/01/24 13:00:57;;;;;;;;;;;;;;;4.92;84.15;102253.00;5002312;28;1391;-84
2022/01/24 13:03:23;;;;;;;;;;;;;;;4.88;84.34;102241.69;5020379;28;1216;-84
2022/01/24 13:05:48;;;;;;;;;;;;;;;4.87;84.14;102247.31;5003851;28;1382;-84
2022/01/24 13:08:17;;;;;;;;;;;;;;;4.88;84.54;102238.16;4999470;28;1894;-83
2022/01/24 13:10:44;;;;;;;;;;;;;;;4.89;84.31;102237.13;5015907;28;1383;-84
2022/01/24 13:13:13;;;;;;;;;;;;;;;4.84;84.22;102234.19;5001503;28;1722;-84
2022/01/24 13:21:10;;;;;;;;;;;;;;;4.81;83.67;102235.41;5019286;28;1349;-84
2022/01/24 13:23:40;;;;;;;;;;;;;;;4.82;83.74;102236.25;4999530;28;1643;-84
2022/01/24 13:26:06;;;;;;;;;;;;;;;4.89;83.88;102251.53;5000029;28;1256;-84
2022/01/24 13:28:31;;;;;;;;;;;;;;;4.84;84.09;102237.72;5004330;28;1890;-84
2022/01/24 13:31:02;;;;;;;;;;;;;;;4.79;84.00;102236.63;5002091;28;1624;-85
2022/01/24 13:33:29;;;;;;;;;;;;;;;4.78;83.83;102238.50;5001340;28;1344;-84
2022/01/24 13:35:59;;;;;;;;;;;;;;;4.83;84.02;102237.94;5000566;28;1363;-84
2022/01/24 13:38:29;;;;;;;;;;;;;;;4.82;84.01;102231.66;5032775;28;1196;-83
2022/01/24 13:41:01;;;;;;;;;;;;;;;4.81;83.96;102235.41;5018445;28;1322;-84
2022/01/24 13:43:40;;;;;;;;;;;;;;;4.84;84.14;102237.72;5016912;28;1722;-84
2022/01/24 13:46:07;;;;;;;;;;;;;;;4.87;83.81;102231.88;4998941;28;1377;-84
2022/01/24 13:48:52;;;;;;;;;;;;;;;4.88;84.07;102230.00;5008797;28;1957;-84
2022/01/24 13:51:18;;;;;;;;;;;;;;;4.83;84.42;102230.63;4981674;28;1584;-84
2022/01/24 13:53:45;;;;;;;;;;;;;;;4.89;84.70;102224.38;4998678;28;1221;-84
2022/01/24 13:56:15;;;;;;;;;;;;;;;4.88;84.14;102224.59;5016695;28;1200;-84
2022/01/24 13:58:40;;;;;;;;;;;;;;;4.86;84.13;102219.34;5016251;28;1686;-84
2022/01/24 14:01:05;;;;;;;;;;;;;;;4.87;83.85;102225.63;5014978;28;1640;-83
2022/01/24 14:03:31;;;;;;;;;;;;;;;4.88;84.06;102221.88;4999076;28;1682;-84
2022/01/24 14:06:15;;;;;;;;;;;;;;;4.86;84.15;102222.06;4986119;28;1317;-84
2022/01/24 14:08:41;;;;;;;;;;;;;;;4.82;84.00;102222.69;4998394;28;1403;-84
2022/01/24 14:11:15;;;;;;;;;;;;;;;4.78;84.14;102214.09;4999756;28;1196;-83
2022/01/24 14:13:47;;;;;;;;;;;;;;;4.77;84.03;102214.28;5001007;28;1402;-83
2022/01/24 14:16:33;;;;;;;;;;;;;;;4.71;84.38;102209.69;4990412;28;1614;-83
2022/01/24 14:19:02;;;;;;;;;;;;;;;4.70;84.29;102221.56;5014670;28;1496;-83
2022/01/24 14:21:27;;;;;;;;;;;;;;;4.70;84.48;102216.97;5003216;28;1622;-84
2022/01/24 14:23:54;;;;;;;;;;;;;;;4.72;83.71;102211.34;4999720;28;1053;-84
2022/01/24 14:26:21;;;;;;;;;;;;;;;4.71;84.32;102212.38;4998726;28;1906;-83
2022/01/24 14:28:48;;;;;;;;;;;;;;;4.74;83.78;102214.72;5016634;28;1375;-83
2022/01/24 14:31:14;;;;;;;;;;;;;;;4.76;84.38;102208.06;4992474;28;1375;-83
2022/01/24 14:33:40;;;;;;;;;;;;;;;4.80;83.89;102208.47;4984583;28;1359;-83
2022/01/24 14:36:13;;;;;;;;;;;;;;;4.80;83.86;102206.59;4981236;28;1214;-84
2022/01/24 14:38:39;;;;;;;;;;;;;;;4.80;83.76;102205.75;5009111;28;1301;-84